^^
Meteo Knjazevac Station Historical Data
Daily Summary for July 22, 2021 Units:  Both    English   Metric
Daily Weekly Monthly Yearly Custom
  High: Low: Average:
Temperature: 54.3 °F /  12.4 °C 38.3 °F /  3.5 °C 47.3 °F /  8.5 °C
Dew Point: 44 °F /  6.7 °C 35.1 °F /  1.7 °C 40.4 °F /  4.7 °C
Humidity: 91% 67% 77%
Wind Speed: 8mph /  12.9km/h - 3.1mph /  5km/h
Wind Gust: 21mph /  33.8km/h - -
Wind- - South
Pressure: 30.18 in /  1021.9 hPa 29.97 in /  1014.8 hPa -
Precipitation: 0.00 in /  0 mm    
Historical Graphs
 
 
Tabular Data for July 22, 2021
Time Temperature Dew Point Pressure Wind Wind Speed Wind Gust Humidity Rainfall Rate (Hourly) solar Conditions
00:00 38.3 °F /  3.5 °C 35.1 °F /  1.7 °C 30.18in /  1021.9hPa South 3mph /  4.8km/h 7mph /  11.3km/h 88% 0.00in /  0mm 0 W/m2
00:10 38.3 °F /  3.5 °C 35.1 °F /  1.7 °C 30.18in /  1021.9hPa South 2mph /  3.2km/h 6mph /  9.7km/h 88% 0.00in /  0mm 0 W/m2
00:20 38.5 °F /  3.6 °C 35.2 °F /  1.8 °C 30.18in /  1021.9hPa SSW 3mph /  4.8km/h 5mph /  8km/h 88% 0.00in /  0mm 0 W/m2
00:30 38.7 °F /  3.7 °C 35.4 °F /  1.9 °C 30.18in /  1021.9hPa WSW 3mph /  4.8km/h 5mph /  8km/h 88% 0.00in /  0mm 0 W/m2
00:40 39.1 °F /  3.9 °C 35.8 °F /  2.1 °C 30.18in /  1021.9hPa WSW 5mph /  8km/h 7mph /  11.3km/h 88% 0.00in /  0mm 0 W/m2
00:50 39.7 °F /  4.3 °C 36.5 °F /  2.5 °C 30.17in /  1021.6hPa WSW 1mph /  1.6km/h 7mph /  11.3km/h 88% 0.00in /  0mm 0 W/m2
01:00 40.1 °F /  4.5 °C 36.8 °F /  2.7 °C 30.17in /  1021.6hPa West 2mph /  3.2km/h 5mph /  8km/h 88% 0.00in /  0mm 0 W/m2
01:10 40.3 °F /  4.6 °C 36.4 °F /  2.4 °C 30.17in /  1021.6hPa West 2mph /  3.2km/h 4mph /  6.4km/h 86% 0.00in /  0mm 0 W/m2
01:20 40.5 °F /  4.7 °C 36.6 °F /  2.6 °C 30.17in /  1021.6hPa Calm   4mph /  6.4km/h 86% 0.00in /  0mm 0 W/m2
01:30 40 °F /  4.4 °C 36.2 °F /  2.3 °C 30.17in /  1021.6hPa Calm   3mph /  4.8km/h 86% 0.00in /  0mm 0 W/m2
01:40 39.4 °F /  4.1 °C 35.5 °F /  1.9 °C 30.17in /  1021.6hPa SW 2mph /  3.2km/h 5mph /  8km/h 86% 0.00in /  0mm 0 W/m2
01:50 39.8 °F /  4.3 °C 36.6 °F /  2.6 °C 30.16in /  1021.2hPa South 3mph /  4.8km/h 7mph /  11.3km/h 88% 0.00in /  0mm 0 W/m2
02:00 40.3 °F /  4.6 °C 36.4 °F /  2.4 °C 30.16in /  1021.2hPa South 2mph /  3.2km/h 7mph /  11.3km/h 86% 0.00in /  0mm 0 W/m2
02:10 40.7 °F /  4.8 °C 36.9 °F /  2.7 °C 30.16in /  1021.2hPa SSW 3mph /  4.8km/h 10mph /  16.1km/h 86% 0.00in /  0mm 0 W/m2
02:20 41 °F /  5 °C 36.8 °F /  2.7 °C 30.16in /  1021.2hPa WSW 5mph /  8km/h 10mph /  16.1km/h 85% 0.00in /  0mm 0 W/m2
02:30 42 °F /  5.6 °C 37.8 °F /  3.2 °C 30.16in /  1021.2hPa WSW 2mph /  3.2km/h 8mph /  12.9km/h 85% 0.00in /  0mm 0 W/m2
02:40 42.6 °F /  5.9 °C 38.1 °F /  3.4 °C 30.15in /  1020.9hPa SW 2mph /  3.2km/h 8mph /  12.9km/h 84% 0.00in /  0mm 0 W/m2
02:50 42.6 °F /  5.9 °C 38.1 °F /  3.4 °C 30.15in /  1020.9hPa SW 3mph /  4.8km/h 6mph /  9.7km/h 84% 0.00in /  0mm 0 W/m2
03:00 42.8 °F /  6 °C 38 °F /  3.3 °C 30.15in /  1020.9hPa SSW 2mph /  3.2km/h 6mph /  9.7km/h 83% 0.00in /  0mm 0 W/m2
03:10 42.8 °F /  6 °C 38 °F /  3.3 °C 30.15in /  1020.9hPa SSW 3mph /  4.8km/h 9mph /  14.5km/h 83% 0.00in /  0mm 0 W/m2
03:20 42.8 °F /  6 °C 38 °F /  3.3 °C 30.15in /  1020.9hPa WSW 2mph /  3.2km/h 7mph /  11.3km/h 83% 0.00in /  0mm 0 W/m2
03:30 42.6 °F /  5.9 °C 37.8 °F /  3.2 °C 30.14in /  1020.5hPa SW 2mph /  3.2km/h 8mph /  12.9km/h 83% 0.00in /  0mm 0 W/m2
03:40 42.7 °F /  5.9 °C 37.9 °F /  3.3 °C 30.15in /  1020.9hPa SW 3mph /  4.8km/h 6mph /  9.7km/h 83% 0.00in /  0mm 0 W/m2
03:50 42.8 °F /  6 °C 38 °F /  3.3 °C 30.15in /  1020.9hPa SSW 5mph /  8km/h 8mph /  12.9km/h 83% 0.00in /  0mm 0 W/m2
04:00 43.5 °F /  6.4 °C 38.7 °F /  3.7 °C 30.14in /  1020.5hPa SSE 7mph /  11.3km/h 18mph /  29km/h 83% 0.00in /  0mm 0 W/m2
04:10 43.9 °F /  6.6 °C 38.7 °F /  3.7 °C 30.13in /  1020.2hPa ESE 7mph /  11.3km/h 16mph /  25.7km/h 82% 0.00in /  0mm 0 W/m2
04:20 43.7 °F /  6.5 °C 38.9 °F /  3.8 °C 30.14in /  1020.5hPa East 5mph /  8km/h 12mph /  19.3km/h 83% 0.00in /  0mm 0 W/m2
04:30 44.1 °F /  6.7 °C 39.2 °F /  4 °C 30.13in /  1020.2hPa ESE 7mph /  11.3km/h 15mph /  24.1km/h 83% 0.00in /  0mm 0 W/m2
04:40 44.1 °F /  6.7 °C 39.2 °F /  4 °C 30.13in /  1020.2hPa ESE 3mph /  4.8km/h 14mph /  22.5km/h 83% 0.00in /  0mm 0 W/m2
04:50 44.1 °F /  6.7 °C 39.2 °F /  4 °C 30.13in /  1020.2hPa SE 6mph /  9.7km/h 14mph /  22.5km/h 83% 0.00in /  0mm 0 W/m2
05:00 43.7 °F /  6.5 °C 38.9 °F /  3.8 °C 30.14in /  1020.5hPa WNW 2mph /  3.2km/h 5mph /  8km/h 83% 0.00in /  0mm 0 W/m2
05:10 43.6 °F /  6.4 °C 39.1 °F /  3.9 °C 30.13in /  1020.2hPa SE 3mph /  4.8km/h 8mph /  12.9km/h 84% 0.00in /  0mm 0 W/m2
05:20 43.3 °F /  6.3 °C 38.8 °F /  3.8 °C 30.14in /  1020.5hPa SW 3mph /  4.8km/h 5mph /  8km/h 84% 0.00in /  0mm 0 W/m2
05:30 43.2 °F /  6.2 °C 38.7 °F /  3.7 °C 30.14in /  1020.5hPa SW 2mph /  3.2km/h 6mph /  9.7km/h 84% 0.00in /  0mm 0 W/m2
05:40 43.2 °F /  6.2 °C 39 °F /  3.9 °C 30.14in /  1020.5hPa SSE 5mph /  8km/h 8mph /  12.9km/h 85% 0.00in /  0mm 0 W/m2
05:50 43.5 °F /  6.4 °C 39 °F /  3.9 °C 30.14in /  1020.5hPa SE 3mph /  4.8km/h 12mph /  19.3km/h 84% 0.00in /  0mm 0 W/m2
06:00 43.5 °F /  6.4 °C 39 °F /  3.9 °C 30.14in /  1020.5hPa SE 3mph /  4.8km/h 8mph /  12.9km/h 84% 0.00in /  0mm 0 W/m2
06:10 43.2 °F /  6.2 °C 39 °F /  3.9 °C 30.14in /  1020.5hPa SSE 2mph /  3.2km/h 9mph /  14.5km/h 85% 0.00in /  0mm 0 W/m2
06:20 42.9 °F /  6.1 °C 39 °F /  3.9 °C 30.14in /  1020.5hPa SSE 3mph /  4.8km/h 5mph /  8km/h 86% 0.00in /  0mm 0 W/m2
06:30 42.3 °F /  5.7 °C 38.4 °F /  3.6 °C 30.14in /  1020.5hPa WSW 3mph /  4.8km/h 7mph /  11.3km/h 86% 0.00in /  0mm 0 W/m2
06:40 42.6 °F /  5.9 °C 38.4 °F /  3.6 °C 30.13in /  1020.2hPa SW 1mph /  1.6km/h 5mph /  8km/h 85% 0.00in /  0mm 0 W/m2
06:50 42.4 °F /  5.8 °C 39.1 °F /  3.9 °C 30.13in /  1020.2hPa SSW 2mph /  3.2km/h 11mph /  17.7km/h 88% 0.00in /  0mm 0 W/m2
07:00 42.4 °F /  5.8 °C 38.5 °F /  3.6 °C 30.13in /  1020.2hPa South 2mph /  3.2km/h 11mph /  17.7km/h 86% 0.00in /  0mm 2 W/m2
07:10 41.5 °F /  5.3 °C 38.2 °F /  3.4 °C 30.12in /  1019.9hPa WSW 2mph /  3.2km/h 7mph /  11.3km/h 88% 0.00in /  0mm 3 W/m2
07:20 41.2 °F /  5.1 °C 38.2 °F /  3.4 °C 30.12in /  1019.9hPa West 2mph /  3.2km/h 7mph /  11.3km/h 89% 0.00in /  0mm 12 W/m2
07:30 41.1 °F /  5.1 °C 38.1 °F /  3.4 °C 30.12in /  1019.9hPa SSW 2mph /  3.2km/h 6mph /  9.7km/h 89% 0.00in /  0mm 24 W/m2
07:40 40.5 °F /  4.7 °C 38 °F /  3.3 °C 30.11in /  1019.5hPa SW 2mph /  3.2km/h 5mph /  8km/h 91% 0.00in /  0mm 43 W/m2
07:50 40.9 °F /  4.9 °C 38.2 °F /  3.4 °C 30.11in /  1019.5hPa SSW 1mph /  1.6km/h 8mph /  12.9km/h 90% 0.00in /  0mm 53 W/m2
08:00 40.8 °F /  4.9 °C 38.1 °F /  3.4 °C 30.10in /  1019.2hPa SW 2mph /  3.2km/h 6mph /  9.7km/h 90% 0.00in /  0mm 59 W/m2
08:10 41.3 °F /  5.2 °C 38.3 °F /  3.5 °C 30.10in /  1019.2hPa South 3mph /  4.8km/h 6mph /  9.7km/h 89% 0.00in /  0mm 70 W/m2
08:20 41.9 °F /  5.5 °C 38.6 °F /  3.7 °C 30.10in /  1019.2hPa South 2mph /  3.2km/h 7mph /  11.3km/h 88% 0.00in /  0mm 81 W/m2
08:30 42.6 °F /  5.9 °C 38.7 °F /  3.7 °C 30.10in /  1019.2hPa SSW 1mph /  1.6km/h 6mph /  9.7km/h 86% 0.00in /  0mm 98 W/m2
08:40 43.1 °F /  6.2 °C 38.9 °F /  3.8 °C 30.10in /  1019.2hPa SW 3mph /  4.8km/h 7mph /  11.3km/h 85% 0.00in /  0mm 109 W/m2
08:50 44 °F /  6.7 °C 39.5 °F /  4.2 °C 30.10in /  1019.2hPa SW 2mph /  3.2km/h 5mph /  8km/h 84% 0.00in /  0mm 109 W/m2
09:00 44.2 °F /  6.8 °C 40 °F /  4.4 °C 30.10in /  1019.2hPa WSW 2mph /  3.2km/h 5mph /  8km/h 85% 0.00in /  0mm 136 W/m2
09:10 44.8 °F /  7.1 °C 40.2 °F /  4.6 °C 30.10in /  1019.2hPa Calm   5mph /  8km/h 84% 0.00in /  0mm 167 W/m2
09:20 45.3 °F /  7.4 °C 40.8 °F /  4.9 °C 30.10in /  1019.2hPa West 2mph /  3.2km/h 4mph /  6.4km/h 84% 0.00in /  0mm 176 W/m2
09:30 46 °F /  7.8 °C 40.9 °F /  4.9 °C 30.09in /  1018.8hPa SW 1mph /  1.6km/h 5mph /  8km/h 82% 0.00in /  0mm 171 W/m2
09:40 46.5 °F /  8.1 °C 41 °F /  5 °C 30.09in /  1018.8hPa WNW 1mph /  1.6km/h 2mph /  3.2km/h 81% 0.00in /  0mm 206 W/m2
09:50 47.1 °F /  8.4 °C 41.3 °F /  5.2 °C 30.09in /  1018.8hPa Calm   3mph /  4.8km/h 80% 0.00in /  0mm 278 W/m2
10:00 48.3 °F /  9.1 °C 42.1 °F /  5.6 °C 30.09in /  1018.8hPa Calm   5mph /  8km/h 79% 0.00in /  0mm 319 W/m2
10:10 49.6 °F /  9.8 °C 42.6 °F /  5.9 °C 30.09in /  1018.8hPa SW 2mph /  3.2km/h 3mph /  4.8km/h 77% 0.00in /  0mm 324 W/m2
10:20 50.7 °F /  10.4 °C 42.7 °F /  5.9 °C 30.09in /  1018.8hPa South 3mph /  4.8km/h 6mph /  9.7km/h 74% 0.00in /  0mm 344 W/m2
10:30 51.8 °F /  11 °C 43.4 °F /  6.3 °C 30.08in /  1018.5hPa South 5mph /  8km/h 10mph /  16.1km/h 73% 0.00in /  0mm 355 W/m2
10:40 52.7 °F /  11.5 °C 43.9 °F /  6.6 °C 30.08in /  1018.5hPa South 5mph /  8km/h 12mph /  19.3km/h 72% 0.00in /  0mm 364 W/m2
10:50 53.4 °F /  11.9 °C 43.5 °F /  6.4 °C 30.08in /  1018.5hPa SSW 7mph /  11.3km/h 13mph /  20.9km/h 69% 0.00in /  0mm 372 W/m2
11:00 53.6 °F /  12 °C 43.7 °F /  6.5 °C 30.07in /  1018.2hPa SSW 5mph /  8km/h 12mph /  19.3km/h 69% 0.00in /  0mm 379 W/m2
11:10 54.1 °F /  12.3 °C 43.7 °F /  6.5 °C 30.06in /  1017.8hPa SSE 6mph /  9.7km/h 10mph /  16.1km/h 68% 0.00in /  0mm 384 W/m2
11:20 54.3 °F /  12.4 °C 44 °F /  6.7 °C 30.06in /  1017.8hPa SSE 3mph /  4.8km/h 13mph /  20.9km/h 68% 0.00in /  0mm 309 W/m2
11:30 54.3 °F /  12.4 °C 44 °F /  6.7 °C 30.06in /  1017.8hPa SE 3mph /  4.8km/h 10mph /  16.1km/h 68% 0.00in /  0mm 244 W/m2
11:40 54.1 °F /  12.3 °C 43.8 °F /  6.6 °C 30.05in /  1017.5hPa SE 6mph /  9.7km/h 12mph /  19.3km/h 68% 0.00in /  0mm 262 W/m2
11:50 54 °F /  12.2 °C 43.6 °F /  6.4 °C 30.05in /  1017.5hPa SSE 5mph /  8km/h 13mph /  20.9km/h 68% 0.00in /  0mm 222 W/m2
12:00 53.8 °F /  12.1 °C 43.1 °F /  6.2 °C 30.05in /  1017.5hPa SSE 7mph /  11.3km/h 13mph /  20.9km/h 67% 0.00in /  0mm 188 W/m2
12:10 53.4 °F /  11.9 °C 43.1 °F /  6.2 °C 30.04in /  1017.2hPa SE 7mph /  11.3km/h 12mph /  19.3km/h 68% 0.00in /  0mm 184 W/m2
12:20 53.2 °F /  11.8 °C 42.9 °F /  6.1 °C 30.04in /  1017.2hPa SSE 5mph /  8km/h 12mph /  19.3km/h 68% 0.00in /  0mm 158 W/m2
12:30 53.2 °F /  11.8 °C 43.3 °F /  6.3 °C 30.04in /  1017.2hPa SSE 1mph /  1.6km/h 7mph /  11.3km/h 69% 0.00in /  0mm 161 W/m2
12:40 53.1 °F /  11.7 °C 43.2 °F /  6.2 °C 30.03in /  1016.8hPa South 2mph /  3.2km/h 6mph /  9.7km/h 69% 0.00in /  0mm 182 W/m2
12:50 53.2 °F /  11.8 °C 43.3 °F /  6.3 °C 30.03in /  1016.8hPa SSE 2mph /  3.2km/h 8mph /  12.9km/h 69% 0.00in /  0mm 199 W/m2
13:00 53.2 °F /  11.8 °C 43.3 °F /  6.3 °C 30.03in /  1016.8hPa SSE 2mph /  3.2km/h 7mph /  11.3km/h 69% 0.00in /  0mm 214 W/m2
13:10 53.5 °F /  11.9 °C 43.6 °F /  6.4 °C 30.03in /  1016.8hPa SSE 3mph /  4.8km/h 8mph /  12.9km/h 69% 0.00in /  0mm 199 W/m2
13:20 53.6 °F /  12 °C 43.3 °F /  6.3 °C 30.02in /  1016.5hPa SSE 2mph /  3.2km/h 7mph /  11.3km/h 68% 0.00in /  0mm 178 W/m2
13:30 53.4 °F /  11.9 °C 43.1 °F /  6.2 °C 30.02in /  1016.5hPa SSW 5mph /  8km/h 10mph /  16.1km/h 68% 0.00in /  0mm 149 W/m2
13:40 53.4 °F /  11.9 °C 43.1 °F /  6.2 °C 30.02in /  1016.5hPa SSE 3mph /  4.8km/h 9mph /  14.5km/h 68% 0.00in /  0mm 117 W/m2
13:50 53.2 °F /  11.8 °C 43.3 °F /  6.3 °C 30.02in /  1016.5hPa South 2mph /  3.2km/h 6mph /  9.7km/h 69% 0.00in /  0mm 107 W/m2
14:00 53.1 °F /  11.7 °C 43.2 °F /  6.2 °C 30.01in /  1016.1hPa South 3mph /  4.8km/h 11mph /  17.7km/h 69% 0.00in /  0mm 100 W/m2
14:10 52.9 °F /  11.6 °C 42.6 °F /  5.9 °C 30.01in /  1016.1hPa SSE 5mph /  8km/h 10mph /  16.1km/h 68% 0.00in /  0mm 71 W/m2
14:20 52.9 °F /  11.6 °C 42.6 °F /  5.9 °C 30.01in /  1016.1hPa SSE 5mph /  8km/h 10mph /  16.1km/h 68% 0.00in /  0mm 52 W/m2
14:30 52.6 °F /  11.4 °C 42.7 °F /  5.9 °C 30.01in /  1016.1hPa South 3mph /  4.8km/h 8mph /  12.9km/h 69% 0.00in /  0mm 37 W/m2
14:40 52.3 °F /  11.3 °C 42.5 °F /  5.8 °C 30.01in /  1016.1hPa SSE 5mph /  8km/h 9mph /  14.5km/h 69% 0.00in /  0mm 30 W/m2
14:50 52.2 °F /  11.2 °C 42.3 °F /  5.7 °C 30.01in /  1016.1hPa SSE 6mph /  9.7km/h 14mph /  22.5km/h 69% 0.00in /  0mm 32 W/m2
15:00 52.3 °F /  11.3 °C 42.1 °F /  5.6 °C 30.01in /  1016.1hPa SE 6mph /  9.7km/h 18mph /  29km/h 68% 0.00in /  0mm 27 W/m2
15:10 52.3 °F /  11.3 °C 42.1 °F /  5.6 °C 30.01in /  1016.1hPa SSE 6mph /  9.7km/h 14mph /  22.5km/h 68% 0.00in /  0mm 25 W/m2
15:20 52.3 °F /  11.3 °C 42.4 °F /  5.8 °C 30.00in /  1015.8hPa SSE 5mph /  8km/h 12mph /  19.3km/h 69% 0.00in /  0mm 19 W/m2
15:30 52.2 °F /  11.2 °C 42.3 °F /  5.7 °C 30.01in /  1016.1hPa SE 5mph /  8km/h 13mph /  20.9km/h 69% 0.00in /  0mm 16 W/m2
15:40 52 °F /  11.1 °C 42.1 °F /  5.6 °C 30.01in /  1016.1hPa SSE 2mph /  3.2km/h 13mph /  20.9km/h 69% 0.00in /  0mm 12 W/m2
15:50 51.8 °F /  11 °C 42.3 °F /  5.7 °C 30.01in /  1016.1hPa SSE 1mph /  1.6km/h 6mph /  9.7km/h 70% 0.00in /  0mm 10 W/m2
16:00 51.6 °F /  10.9 °C 42.2 °F /  5.7 °C 30.01in /  1016.1hPa South 2mph /  3.2km/h 7mph /  11.3km/h 70% 0.00in /  0mm 7 W/m2
16:10 51.3 °F /  10.7 °C 41.9 °F /  5.5 °C 30.01in /  1016.1hPa South 2mph /  3.2km/h 6mph /  9.7km/h 70% 0.00in /  0mm 3 W/m2
16:20 50.9 °F /  10.5 °C 42.2 °F /  5.7 °C 30.00in /  1015.8hPa South 2mph /  3.2km/h 7mph /  11.3km/h 72% 0.00in /  0mm 3 W/m2
16:30 50.7 °F /  10.4 °C 42 °F /  5.6 °C 30.01in /  1016.1hPa SSW 3mph /  4.8km/h 6mph /  9.7km/h 72% 0.00in /  0mm 0 W/m2
16:40 50.2 °F /  10.1 °C 41.6 °F /  5.3 °C 30.01in /  1016.1hPa SSW 2mph /  3.2km/h 6mph /  9.7km/h 72% 0.00in /  0mm 0 W/m2
16:50 49.9 °F /  9.9 °C 41.2 °F /  5.1 °C 30.01in /  1016.1hPa SSW 2mph /  3.2km/h 7mph /  11.3km/h 72% 0.00in /  0mm 0 W/m2
17:00 49.5 °F /  9.7 °C 41.2 °F /  5.1 °C 30.00in /  1015.8hPa SSW 1mph /  1.6km/h 5mph /  8km/h 73% 0.00in /  0mm 0 W/m2
17:10 49.3 °F /  9.6 °C 41 °F /  5 °C 30.00in /  1015.8hPa SSW 2mph /  3.2km/h 7mph /  11.3km/h 73% 0.00in /  0mm 0 W/m2
17:20 49.1 °F /  9.5 °C 40.8 °F /  4.9 °C 30.00in /  1015.8hPa SSW 2mph /  3.2km/h 6mph /  9.7km/h 73% 0.00in /  0mm 0 W/m2
17:30 48.9 °F /  9.4 °C 40.6 °F /  4.8 °C 30.00in /  1015.8hPa SSW 2mph /  3.2km/h 7mph /  11.3km/h 73% 0.00in /  0mm 0 W/m2
17:40 49.1 °F /  9.5 °C 40.8 °F /  4.9 °C 30.01in /  1016.1hPa South 2mph /  3.2km/h 6mph /  9.7km/h 73% 0.00in /  0mm 0 W/m2
17:50 49.1 °F /  9.5 °C 40.8 °F /  4.9 °C 30.01in /  1016.1hPa SSE 1mph /  1.6km/h 5mph /  8km/h 73% 0.00in /  0mm 0 W/m2
18:00 49 °F /  9.4 °C 41 °F /  5 °C 30.00in /  1015.8hPa SW 1mph /  1.6km/h 3mph /  4.8km/h 74% 0.00in /  0mm 0 W/m2
18:10 48.7 °F /  9.3 °C 40.7 °F /  4.8 °C 30.01in /  1016.1hPa WNW 2mph /  3.2km/h 5mph /  8km/h 74% 0.00in /  0mm 0 W/m2
18:20 48.7 °F /  9.3 °C 41.2 °F /  5.1 °C 30.01in /  1016.1hPa WNW 1mph /  1.6km/h 4mph /  6.4km/h 75% 0.00in /  0mm 0 W/m2
18:30 49 °F /  9.4 °C 41.1 °F /  5.1 °C 30.00in /  1015.8hPa SSW 2mph /  3.2km/h 5mph /  8km/h 74% 0.00in /  0mm 0 W/m2
18:40 48.8 °F /  9.3 °C 40.9 °F /  4.9 °C 29.99in /  1015.5hPa SSW 2mph /  3.2km/h 5mph /  8km/h 74% 0.00in /  0mm 0 W/m2
18:50 48.4 °F /  9.1 °C 40.5 °F /  4.7 °C 29.99in /  1015.5hPa SSW 2mph /  3.2km/h 6mph /  9.7km/h 74% 0.00in /  0mm 0 W/m2
19:00 48.4 °F /  9.1 °C 40.5 °F /  4.7 °C 29.99in /  1015.5hPa SSW 3mph /  4.8km/h 7mph /  11.3km/h 74% 0.00in /  0mm 0 W/m2
19:10 48.4 °F /  9.1 °C 40.5 °F /  4.7 °C 29.99in /  1015.5hPa SW 3mph /  4.8km/h 7mph /  11.3km/h 74% 0.00in /  0mm 0 W/m2
19:20 48.7 °F /  9.3 °C 40.8 °F /  4.9 °C 29.99in /  1015.5hPa SSW 5mph /  8km/h 8mph /  12.9km/h 74% 0.00in /  0mm 0 W/m2
19:30 48.9 °F /  9.4 °C 41 °F /  5 °C 29.99in /  1015.5hPa South 2mph /  3.2km/h 7mph /  11.3km/h 74% 0.00in /  0mm 0 W/m2
19:40 49.2 °F /  9.6 °C 41.3 °F /  5.2 °C 29.99in /  1015.5hPa South 1mph /  1.6km/h 8mph /  12.9km/h 74% 0.00in /  0mm 0 W/m2
19:50 49.3 °F /  9.6 °C 41.3 °F /  5.2 °C 29.99in /  1015.5hPa ENE 1mph /  1.6km/h 4mph /  6.4km/h 74% 0.00in /  0mm 0 W/m2
20:00 49.1 °F /  9.5 °C 41.5 °F /  5.3 °C 29.99in /  1015.5hPa Calm   6mph /  9.7km/h 75% 0.00in /  0mm 0 W/m2
20:10 49.1 °F /  9.5 °C 41.2 °F /  5.1 °C 29.99in /  1015.5hPa SE 2mph /  3.2km/h 5mph /  8km/h 74% 0.00in /  0mm 0 W/m2
20:20 49.3 °F /  9.6 °C 41.3 °F /  5.2 °C 29.99in /  1015.5hPa SSE 2mph /  3.2km/h 7mph /  11.3km/h 74% 0.00in /  0mm 0 W/m2
20:30 49.3 °F /  9.6 °C 41.3 °F /  5.2 °C 29.99in /  1015.5hPa SE 2mph /  3.2km/h 7mph /  11.3km/h 74% 0.00in /  0mm 0 W/m2
20:40 49.5 °F /  9.7 °C 41.5 °F /  5.3 °C 29.98in /  1015.1hPa ESE 2mph /  3.2km/h 7mph /  11.3km/h 74% 0.00in /  0mm 0 W/m2
20:50 49.5 °F /  9.7 °C 41.6 °F /  5.3 °C 29.98in /  1015.1hPa ESE 2mph /  3.2km/h 7mph /  11.3km/h 74% 0.00in /  0mm 0 W/m2
21:00 49.5 °F /  9.7 °C 41.5 °F /  5.3 °C 29.99in /  1015.5hPa SSE 2mph /  3.2km/h 5mph /  8km/h 74% 0.00in /  0mm 0 W/m2
21:10 49.5 °F /  9.7 °C 41.5 °F /  5.3 °C 29.99in /  1015.5hPa South 1mph /  1.6km/h 4mph /  6.4km/h 74% 0.00in /  0mm 0 W/m2
21:20 49.3 °F /  9.6 °C 41.3 °F /  5.2 °C 29.98in /  1015.1hPa SSE 3mph /  4.8km/h 6mph /  9.7km/h 74% 0.00in /  0mm 0 W/m2
21:30 49.3 °F /  9.6 °C 41.3 °F /  5.2 °C 29.98in /  1015.1hPa SE 5mph /  8km/h 8mph /  12.9km/h 74% 0.00in /  0mm 0 W/m2
21:40 49.5 °F /  9.7 °C 41.5 °F /  5.3 °C 29.98in /  1015.1hPa SE 1mph /  1.6km/h 8mph /  12.9km/h 74% 0.00in /  0mm 0 W/m2
21:50 49.5 °F /  9.7 °C 41.5 °F /  5.3 °C 29.97in /  1014.8hPa SSE 3mph /  4.8km/h 7mph /  11.3km/h 74% 0.00in /  0mm 0 W/m2
22:00 49.8 °F /  9.9 °C 41.5 °F /  5.3 °C 29.98in /  1015.1hPa SE 5mph /  8km/h 9mph /  14.5km/h 73% 0.00in /  0mm 0 W/m2
22:10 49.8 °F /  9.9 °C 41.5 °F /  5.3 °C 29.97in /  1014.8hPa SE 5mph /  8km/h 9mph /  14.5km/h 73% 0.00in /  0mm 0 W/m2
22:20 49.6 °F /  9.8 °C 41.3 °F /  5.2 °C 29.97in /  1014.8hPa SSE 5mph /  8km/h 9mph /  14.5km/h 73% 0.00in /  0mm 0 W/m2
22:30 49.8 °F /  9.9 °C 41.5 °F /  5.3 °C 29.98in /  1015.1hPa SSE 6mph /  9.7km/h 13mph /  20.9km/h 73% 0.00in /  0mm 0 W/m2
22:40 50.4 °F /  10.2 °C 41.7 °F /  5.4 °C 29.97in /  1014.8hPa SSE 6mph /  9.7km/h 16mph /  25.7km/h 72% 0.00in /  0mm 0 W/m2
22:50 50.4 °F /  10.2 °C 41.7 °F /  5.4 °C 29.97in /  1014.8hPa SSE 5mph /  8km/h 14mph /  22.5km/h 72% 0.00in /  0mm 0 W/m2
23:00 50 °F /  10 °C 41.7 °F /  5.4 °C 29.98in /  1015.1hPa South 5mph /  8km/h 10mph /  16.1km/h 73% 0.00in /  0mm 0 W/m2
23:10 50 °F /  10 °C 41.7 °F /  5.4 °C 29.97in /  1014.8hPa SSE 7mph /  11.3km/h 14mph /  22.5km/h 73% 0.00in /  0mm 0 W/m2
23:20 50.7 °F /  10.4 °C 42 °F /  5.6 °C 29.97in /  1014.8hPa SE 7mph /  11.3km/h 17mph /  27.4km/h 72% 0.00in /  0mm 0 W/m2
23:30 50.9 °F /  10.5 °C 41.5 °F /  5.3 °C 29.97in /  1014.8hPa SE 8mph /  12.9km/h 16mph /  25.7km/h 70% 0.00in /  0mm 0 W/m2
23:40 51.1 °F /  10.6 °C 41.6 °F /  5.3 °C 29.97in /  1014.8hPa SE 7mph /  11.3km/h 20mph /  32.2km/h 70% 0.00in /  0mm 0 W/m2
23:50 51.1 °F /  10.6 °C 41.6 °F /  5.3 °C 29.97in /  1014.8hPa SSE 8mph /  12.9km/h 21mph /  33.8km/h 70% 0.00in /  0mm 0 W/m2
Knjazevac, Serbia
Compliments of Weather Underground - 2 mb